Lac du Flambeau Reservation, Wisconsin
Current Conditions -  °F | °C
As of 11:53 PM on Sunday 19 Oct 2014 (Local Time) from KASX Reporting Station
Clear Clear  
Wind Chill: 51°   Ceiling: Unl
Heat Index: 51°   Visibility: 10mi
Dew Point: 43°   Wind: 9mph
Humidity: 74%   Direction: 330°NNW
Pressure: 29.79"   Gusts: NA
Location:  46.543°N, 90.8706°W
Report Text: KASX 200453Z AUTO 33008KT 10SM CLR 11/06 A2979 RMK AO2 SLP093 T01060061
Loading
Personal Weather Stations






























Interactive Weather Map
Tropical Storm Tracking
New forecast layout! Learn more

10-Day Weather Forecast

Advertisements
Track Severe Weather on mobile